sensor_id;sensor_type;location;lat;lon;timestamp;P1;durP1;ratioP1;P2;durP2;ratioP2
50906;SDS011;36882;27.680;85.304;2023-01-05T00:02:02;132.35;;;57.97;;
50906;SDS011;36882;27.680;85.304;2023-01-05T00:04:32;137.80;;;59.17;;
50906;SDS011;36882;27.680;85.304;2023-01-05T00:07:02;128.70;;;58.92;;
50906;SDS011;36882;27.680;85.304;2023-01-05T00:09:32;121.97;;;56.33;;
50906;SDS011;36882;27.680;85.304;2023-01-05T00:12:02;120.13;;;56.30;;
50906;SDS011;36882;27.680;85.304;2023-01-05T00:14:47;116.97;;;56.70;;
50906;SDS011;36882;27.680;85.304;2023-01-05T00:17:35;122.90;;;59.90;;
50906;SDS011;36882;27.680;85.304;2023-01-05T00:20:17;118.45;;;60.03;;
50906;SDS011;36882;27.680;85.304;2023-01-05T00:23:06;133.90;;;59.35;;
50906;SDS011;36882;27.680;85.304;2023-01-05T00:25:38;136.15;;;61.78;;
50906;SDS011;36882;27.680;85.304;2023-01-05T00:28:08;127.93;;;60.40;;
50906;SDS011;36882;27.680;85.304;2023-01-05T00:30:39;140.57;;;65.18;;
50906;SDS011;36882;27.680;85.304;2023-01-05T00:33:15;157.17;;;67.43;;
50906;SDS011;36882;27.680;85.304;2023-01-05T00:35:45;207.43;;;97.87;;
50906;SDS011;36882;27.680;85.304;2023-01-05T00:38:15;186.20;;;84.17;;
50906;SDS011;36882;27.680;85.304;2023-01-05T00:40:45;163.38;;;77.55;;
50906;SDS011;36882;27.680;85.304;2023-01-05T00:43:17;172.15;;;81.70;;
50906;SDS011;36882;27.680;85.304;2023-01-05T00:45:47;168.80;;;79.70;;
50906;SDS011;36882;27.680;85.304;2023-01-05T00:48:16;180.07;;;81.73;;
50906;SDS011;36882;27.680;85.304;2023-01-05T00:50:48;191.52;;;89.90;;
50906;SDS011;36882;27.680;85.304;2023-01-05T00:53:18;193.20;;;96.25;;
50906;SDS011;36882;27.680;85.304;2023-01-05T00:55:55;181.63;;;85.67;;
50906;SDS011;36882;27.680;85.304;2023-01-05T00:58:26;203.45;;;99.90;;
50906;SDS011;36882;27.680;85.304;2023-01-05T01:00:56;230.10;;;117.47;;
50906;SDS011;36882;27.680;85.304;2023-01-05T01:03:26;250.85;;;132.07;;
50906;SDS011;36882;27.680;85.304;2023-01-05T01:05:57;238.40;;;132.35;;
50906;SDS011;36882;27.680;85.304;2023-01-05T01:08:27;240.23;;;128.65;;
50906;SDS011;36882;27.680;85.304;2023-01-05T01:11:01;243.48;;;140.50;;
50906;SDS011;36882;27.680;85.304;2023-01-05T01:13:33;268.23;;;153.67;;
50906;SDS011;36882;27.680;85.304;2023-01-05T01:16:05;280.70;;;165.57;;
50906;SDS011;36882;27.680;85.304;2023-01-05T01:18:36;281.80;;;173.47;;
50906;SDS011;36882;27.680;85.304;2023-01-05T01:23:36;230.67;;;129.07;;
50906;SDS011;36882;27.680;85.304;2023-01-05T01:26:07;227.60;;;128.13;;
50906;SDS011;36882;27.680;85.304;2023-01-05T01:28:39;233.10;;;130.83;;
50906;SDS011;36882;27.680;85.304;2023-01-05T01:31:09;239.38;;;123.72;;
50906;SDS011;36882;27.680;85.304;2023-01-05T01:33:39;231.23;;;129.73;;
50906;SDS011;36882;27.680;85.304;2023-01-05T01:36:09;227.57;;;121.00;;
50906;SDS011;36882;27.680;85.304;2023-01-05T01:38:39;251.15;;;136.43;;
50906;SDS011;36882;27.680;85.304;2023-01-05T01:41:10;262.63;;;176.07;;
50906;SDS011;36882;27.680;85.304;2023-01-05T01:43:43;249.95;;;148.73;;
50906;SDS011;36882;27.680;85.304;2023-01-05T01:46:18;261.20;;;142.60;;
50906;SDS011;36882;27.680;85.304;2023-01-05T01:48:50;242.57;;;140.50;;
50906;SDS011;36882;27.680;85.304;2023-01-05T01:51:31;242.07;;;146.20;;
50906;SDS011;36882;27.680;85.304;2023-01-05T01:54:10;252.15;;;131.68;;
50906;SDS011;36882;27.680;85.304;2023-01-05T01:56:46;236.30;;;132.80;;
50906;SDS011;36882;27.680;85.304;2023-01-05T01:59:23;225.87;;;124.60;;
50906;SDS011;36882;27.680;85.304;2023-01-05T02:01:55;215.18;;;114.32;;
50906;SDS011;36882;27.680;85.304;2023-01-05T02:04:29;213.25;;;107.97;;
50906;SDS011;36882;27.680;85.304;2023-01-05T02:07:01;216.68;;;105.20;;
50906;SDS011;36882;27.680;85.304;2023-01-05T02:09:32;197.70;;;102.00;;
50906;SDS011;36882;27.680;85.304;2023-01-05T02:12:05;202.98;;;94.43;;
50906;SDS011;36882;27.680;85.304;2023-01-05T02:18:00;194.30;;;89.20;;
50906;SDS011;36882;27.680;85.304;2023-01-05T02:20:51;199.38;;;96.43;;
50906;SDS011;36882;27.680;85.304;2023-01-05T02:23:38;183.57;;;91.20;;
50906;SDS011;36882;27.680;85.304;2023-01-05T02:26:36;179.63;;;95.20;;
50906;SDS011;36882;27.680;85.304;2023-01-05T02:29:40;203.25;;;105.00;;
50906;SDS011;36882;27.680;85.304;2023-01-05T02:32:29;201.38;;;100.60;;
50906;SDS011;36882;27.680;85.304;2023-01-05T02:35:16;198.93;;;103.03;;
50906;SDS011;36882;27.680;85.304;2023-01-05T02:38:16;189.30;;;102.30;;
50906;SDS011;36882;27.680;85.304;2023-01-05T02:41:01;186.90;;;99.55;;
50906;SDS011;36882;27.680;85.304;2023-01-05T02:43:54;191.30;;;105.85;;
50906;SDS011;36882;27.680;85.304;2023-01-05T02:46:24;221.95;;;108.30;;
50906;SDS011;36882;27.680;85.304;2023-01-05T02:48:55;185.32;;;102.82;;
50906;SDS011;36882;27.680;85.304;2023-01-05T02:51:31;241.27;;;110.70;;
